createdAt,value
2023-01-27T00:01:50.464Z,8.16
2023-01-27T00:04:39.581Z,8.20
2023-01-27T00:07:28.674Z,8.21
2023-01-27T00:10:12.185Z,8.19
2023-01-27T00:13:24.667Z,7.96
2023-01-27T00:16:13.696Z,7.94
2023-01-27T00:18:55.891Z,8.03
2023-01-27T00:22:02.629Z,7.92
2023-01-27T00:24:44.864Z,7.98
2023-01-27T00:27:36.542Z,7.90
2023-01-27T00:30:25.617Z,7.72
2023-01-27T00:33:26.000Z,7.73
2023-01-27T00:36:15.614Z,7.68
2023-01-27T00:38:57.898Z,7.62
2023-01-27T00:41:47.566Z,7.69
2023-01-27T00:44:36.535Z,7.82
2023-01-27T00:47:27.613Z,7.84
2023-01-27T00:50:16.655Z,7.83
2023-01-27T00:53:06.579Z,7.94
2023-01-27T00:55:50.676Z,7.79
2023-01-27T00:58:39.999Z,7.68
2023-01-27T01:01:24.588Z,7.80
2023-01-27T01:04:13.901Z,7.88
2023-01-27T01:06:55.623Z,7.75
2023-01-27T01:09:44.627Z,7.76
2023-01-27T01:12:37.629Z,7.81
2023-01-27T01:15:19.791Z,7.75
2023-01-27T01:18:08.603Z,7.76
2023-01-27T01:20:53.689Z,7.82
2023-01-27T01:23:43.607Z,7.75
2023-01-27T01:26:25.806Z,7.75
2023-01-27T01:29:14.633Z,7.61
2023-01-27T01:31:56.776Z,7.63
2023-01-27T01:34:46.555Z,7.79
2023-01-27T01:37:28.862Z,7.75
2023-01-27T01:40:20.681Z,7.54
2023-01-27T01:43:10.898Z,7.77
2023-01-27T01:46:02.705Z,7.58
2023-01-27T01:49:04.042Z,7.53
2023-01-27T01:51:57.643Z,7.45
2023-01-27T01:54:56.112Z,7.53
2023-01-27T01:57:45.583Z,7.48
2023-01-27T02:00:28.815Z,7.34
2023-01-27T02:03:18.612Z,7.32
2023-01-27T02:06:08.882Z,7.91
2023-01-27T02:08:55.619Z,7.97
2023-01-27T02:11:44.501Z,8.03
2023-01-27T02:14:33.608Z,8.02
2023-01-27T02:17:23.613Z,7.83
2023-01-27T02:20:47.958Z,7.78
2023-01-27T02:23:58.621Z,7.75
2023-01-27T02:26:52.876Z,7.71
2023-01-27T02:29:43.596Z,7.75
2023-01-27T02:32:40.278Z,7.86
2023-01-27T02:35:33.329Z,7.92
2023-01-27T02:38:25.640Z,7.87
2023-01-27T02:41:36.425Z,8.01
2023-01-27T02:44:26.608Z,7.91
2023-01-27T02:47:08.752Z,8.02
2023-01-27T02:49:57.646Z,8.26
2023-01-27T02:52:39.750Z,8.49
2023-01-27T02:55:28.641Z,8.46
2023-01-27T02:58:17.908Z,8.65
2023-01-27T03:01:04.677Z,8.69
2023-01-27T03:03:48.173Z,8.74
2023-01-27T03:06:36.599Z,8.91
2023-01-27T03:09:24.912Z,9.05
2023-01-27T03:12:27.561Z,9.10
2023-01-27T03:15:28.994Z,9.22
2023-01-27T03:18:23.575Z,9.39
2023-01-27T03:21:08.009Z,9.59
2023-01-27T03:23:57.658Z,9.98
2023-01-27T03:26:39.674Z,11.04
2023-01-27T03:29:49.526Z,11.90
2023-01-27T03:32:34.241Z,12.61
2023-01-27T03:35:55.594Z,13.27
2023-01-27T03:39:02.362Z,13.84
2023-01-27T03:42:03.581Z,14.09
2023-01-27T03:45:11.707Z,14.65
2023-01-27T03:47:54.584Z,15.40
2023-01-27T03:50:50.568Z,15.81
2023-01-27T03:53:39.561Z,16.29
2023-01-27T03:56:29.857Z,16.69
2023-01-27T03:59:12.572Z,17.02
2023-01-27T04:02:19.173Z,17.33
2023-01-27T04:05:19.810Z,17.33
2023-01-27T04:08:07.941Z,17.97
2023-01-27T04:11:09.658Z,17.77
2023-01-27T04:13:57.915Z,17.90
2023-01-27T04:16:42.528Z,18.20
2023-01-27T04:19:25.402Z,18.14
2023-01-27T04:22:15.557Z,18.31
2023-01-27T04:25:03.918Z,18.97
2023-01-27T04:27:52.632Z,18.91
2023-01-27T04:30:41.630Z,19.55
2023-01-27T04:33:30.854Z,19.34
2023-01-27T04:36:13.523Z,19.72
2023-01-27T04:39:02.581Z,20.49
2023-01-27T04:41:46.624Z,20.44
2023-01-27T04:44:35.626Z,20.08
2023-01-27T04:47:17.916Z,20.21
2023-01-27T04:50:06.687Z,20.94
2023-01-27T04:52:49.046Z,20.99
2023-01-27T04:55:37.571Z,20.56
2023-01-27T04:58:20.918Z,20.41
2023-01-27T05:01:09.625Z,20.34
2023-01-27T05:03:52.036Z,20.83
2023-01-27T05:06:40.574Z,20.91
2023-01-27T05:09:22.961Z,20.77
2023-01-27T05:12:11.638Z,20.78
2023-01-27T05:14:53.886Z,20.88
2023-01-27T05:17:43.540Z,21.01
2023-01-27T05:20:26.054Z,20.56
2023-01-27T05:23:32.619Z,20.92
2023-01-27T05:26:35.904Z,20.44
2023-01-27T05:29:24.605Z,20.55
2023-01-27T05:32:13.571Z,21.27
2023-01-27T05:35:01.872Z,21.11
2023-01-27T05:37:44.618Z,20.92
2023-01-27T05:40:33.444Z,20.80
2023-01-27T05:43:22.617Z,21.02
2023-01-27T05:46:15.615Z,20.75
2023-01-27T05:49:07.588Z,20.59
2023-01-27T05:51:55.867Z,21.07
2023-01-27T05:54:38.575Z,21.46
2023-01-27T05:57:20.950Z,21.10
2023-01-27T06:00:09.612Z,20.97
2023-01-27T06:02:57.846Z,21.48
2023-01-27T06:05:40.523Z,21.43
2023-01-27T06:08:31.012Z,21.24
2023-01-27T06:11:13.629Z,21.27
2023-01-27T06:14:03.554Z,21.08
2023-01-27T06:16:48.344Z,21.66
2023-01-27T06:19:37.539Z,21.77
2023-01-27T06:22:26.592Z,21.46
2023-01-27T06:25:09.396Z,21.08
2023-01-27T06:27:58.604Z,21.30
2023-01-27T06:30:41.664Z,21.02
2023-01-27T06:33:30.520Z,21.60
2023-01-27T06:36:25.558Z,21.65
2023-01-27T06:39:07.900Z,21.66
2023-01-27T06:41:57.531Z,21.41
2023-01-27T06:44:39.861Z,20.09
2023-01-27T06:47:28.596Z,20.00
2023-01-27T06:50:11.309Z,21.01
2023-01-27T06:53:01.580Z,20.86
2023-01-27T06:55:52.604Z,20.46
2023-01-27T06:58:41.821Z,20.54
2023-01-27T07:01:24.577Z,20.99
2023-01-27T07:04:12.905Z,20.82
2023-01-27T07:06:54.556Z,20.96
2023-01-27T07:09:52.291Z,20.58
2023-01-27T07:12:38.751Z,20.78
2023-01-27T07:15:27.576Z,20.88
2023-01-27T07:18:09.917Z,20.04
2023-01-27T07:20:58.610Z,20.47
2023-01-27T07:23:40.830Z,20.61
2023-01-27T07:26:29.528Z,20.72
2023-01-27T07:29:17.930Z,20.94
2023-01-27T07:32:00.655Z,20.94
2023-01-27T07:34:48.822Z,20.95
2023-01-27T07:37:30.532Z,21.01
2023-01-27T07:40:14.852Z,20.78
2023-01-27T07:43:03.508Z,20.80
2023-01-27T07:45:50.060Z,20.41
2023-01-27T07:48:38.578Z,19.82
2023-01-27T07:51:27.563Z,20.37
2023-01-27T07:54:09.816Z,20.52
2023-01-27T07:56:58.605Z,20.62
2023-01-27T07:59:40.851Z,20.25
2023-01-27T08:02:33.563Z,20.53
2023-01-27T08:05:16.780Z,20.49
2023-01-27T08:08:06.552Z,20.47
2023-01-27T08:10:50.383Z,20.55
2023-01-27T08:13:39.615Z,20.49
2023-01-27T08:16:22.894Z,20.75
2023-01-27T08:19:11.618Z,20.55
2023-01-27T08:21:53.955Z,20.59
2023-01-27T08:24:51.578Z,20.37
2023-01-27T08:27:33.854Z,20.22
2023-01-27T08:30:22.579Z,20.21
2023-01-27T08:33:11.729Z,20.41
2023-01-27T08:35:59.784Z,20.55
2023-01-27T08:38:42.500Z,20.40
2023-01-27T08:41:33.513Z,20.05
2023-01-27T08:44:15.804Z,20.03
2023-01-27T08:47:04.570Z,20.15
2023-01-27T08:49:53.512Z,20.09
2023-01-27T08:52:36.006Z,20.02
2023-01-27T08:55:24.543Z,19.58
2023-01-27T08:58:13.514Z,19.87
2023-01-27T09:01:02.598Z,20.12
2023-01-27T09:03:44.923Z,20.12
2023-01-27T09:06:34.600Z,20.08
2023-01-27T09:09:17.036Z,20.00
2023-01-27T09:12:05.565Z,20.00
2023-01-27T09:14:47.900Z,19.82
2023-01-27T09:17:36.607Z,20.04
2023-01-27T09:20:25.781Z,19.99
2023-01-27T09:23:09.580Z,19.90
2023-01-27T09:25:58.977Z,20.00
2023-01-27T09:28:47.551Z,19.89
2023-01-27T09:31:30.188Z,19.81
2023-01-27T09:34:19.602Z,19.92
2023-01-27T09:37:14.615Z,19.86
2023-01-27T09:40:10.786Z,19.84
2023-01-27T09:43:46.564Z,19.88
2023-01-27T09:47:02.577Z,19.86
2023-01-27T09:50:07.996Z,19.61
2023-01-27T09:53:14.579Z,19.57
2023-01-27T09:56:17.814Z,19.49
2023-01-27T09:59:19.540Z,19.43
2023-01-27T10:02:26.542Z,19.47
2023-01-27T10:05:33.553Z,19.57
2023-01-27T10:08:34.617Z,19.57
2023-01-27T10:11:53.735Z,19.57
2023-01-27T10:15:09.851Z,19.59
2023-01-27T10:18:12.928Z,19.51
2023-01-27T10:21:25.497Z,19.44
2023-01-27T10:24:25.776Z,19.47
2023-01-27T10:27:31.580Z,19.41
2023-01-27T10:30:45.569Z,19.35
2023-01-27T10:33:56.671Z,19.33
2023-01-27T10:37:00.525Z,19.28
2023-01-27T10:40:08.532Z,19.14
2023-01-27T10:43:03.202Z,19.09
2023-01-27T10:46:18.526Z,19.04
2023-01-27T10:49:10.755Z,19.00
2023-01-27T10:52:11.562Z,18.94
2023-01-27T10:55:48.609Z,18.99
2023-01-27T10:58:48.177Z,18.89
2023-01-27T11:01:48.514Z,18.82
2023-01-27T11:04:44.143Z,18.73
2023-01-27T11:07:35.516Z,18.73
2023-01-27T11:10:20.668Z,18.72
2023-01-27T11:13:13.558Z,18.64
2023-01-27T11:16:02.535Z,18.60
2023-01-27T11:18:47.558Z,18.47
2023-01-27T11:21:39.532Z,18.42
2023-01-27T11:24:59.528Z,18.29
2023-01-27T11:28:14.572Z,18.26
2023-01-27T11:31:18.371Z,18.27
2023-01-27T11:34:18.465Z,18.08
2023-01-27T11:37:14.526Z,18.05
2023-01-27T11:39:56.807Z,18.00
2023-01-27T11:42:49.638Z,17.91
2023-01-27T11:45:44.545Z,17.87
2023-01-27T11:48:28.757Z,17.77
2023-01-27T11:51:30.570Z,17.52
2023-01-27T11:54:33.775Z,17.46
2023-01-27T11:57:31.467Z,17.38
2023-01-27T12:00:37.220Z,17.32
2023-01-27T12:03:36.452Z,17.20
2023-01-27T12:06:56.557Z,17.11
2023-01-27T12:09:45.879Z,17.03
2023-01-27T12:12:33.469Z,16.87
2023-01-27T12:15:26.512Z,16.81
2023-01-27T12:18:12.883Z,16.80
2023-01-27T12:21:09.473Z,16.66
2023-01-27T12:24:02.827Z,16.58
2023-01-27T12:26:53.519Z,16.45
2023-01-27T12:29:48.891Z,16.45
2023-01-27T12:32:46.538Z,16.38
2023-01-27T12:35:37.157Z,16.43
2023-01-27T12:38:34.492Z,16.36
2023-01-27T12:41:27.002Z,16.39
2023-01-27T12:44:36.506Z,16.28
2023-01-27T12:47:35.978Z,16.13
2023-01-27T12:50:30.524Z,16.22
2023-01-27T12:53:17.017Z,16.25
2023-01-27T12:56:35.561Z,16.09
2023-01-27T12:59:27.475Z,16.03
2023-01-27T13:02:24.846Z,15.96
2023-01-27T13:05:18.551Z,16.01
2023-01-27T13:08:02.544Z,15.99
2023-01-27T13:11:18.549Z,15.77
2023-01-27T13:14:00.957Z,15.84
2023-01-27T13:16:51.380Z,16.11
2023-01-27T13:20:01.525Z,16.20
2023-01-27T13:22:54.789Z,16.09
2023-01-27T13:25:50.538Z,15.97
2023-01-27T13:28:54.440Z,15.81
2023-01-27T13:32:01.561Z,15.69
2023-01-27T13:34:49.850Z,15.61
2023-01-27T13:37:49.485Z,15.61
2023-01-27T13:40:44.940Z,15.48
2023-01-27T13:43:45.458Z,15.31
2023-01-27T13:46:35.956Z,15.16
2023-01-27T13:49:45.496Z,15.14
2023-01-27T13:52:34.583Z,15.05
2023-01-27T13:55:17.148Z,15.02
2023-01-27T13:58:19.488Z,14.96
2023-01-27T14:01:30.873Z,14.82
2023-01-27T14:04:31.592Z,14.78
2023-01-27T14:07:31.951Z,14.80
2023-01-27T14:10:32.520Z,14.67
2023-01-27T14:13:51.918Z,14.55
2023-01-27T14:16:56.567Z,14.58
2023-01-27T14:19:51.792Z,14.46
2023-01-27T14:22:43.488Z,14.41
2023-01-27T14:25:35.529Z,14.36
2023-01-27T14:28:51.506Z,14.27
2023-01-27T14:31:54.557Z,14.18
2023-01-27T14:35:25.497Z,14.03
2023-01-27T14:38:29.027Z,13.83
2023-01-27T14:41:29.017Z,13.96
2023-01-27T14:44:33.834Z,13.72
2023-01-27T14:47:38.517Z,13.79
2023-01-27T14:50:43.106Z,13.92
2023-01-27T14:53:47.564Z,14.06
2023-01-27T14:57:07.382Z,13.52
2023-01-27T15:00:20.526Z,13.35
2023-01-27T15:03:50.042Z,13.31
2023-01-27T15:06:34.528Z,13.16
2023-01-27T15:09:35.364Z,13.15
2023-01-27T15:12:42.632Z,13.20
2023-01-27T15:15:46.169Z,13.16
2023-01-27T15:18:53.466Z,13.23
2023-01-27T15:21:57.774Z,13.16
2023-01-27T15:24:45.543Z,13.07
2023-01-27T15:27:36.148Z,12.96
2023-01-27T15:30:48.564Z,12.99
2023-01-27T15:34:04.849Z,13.03
2023-01-27T15:36:48.512Z,12.99
2023-01-27T15:39:42.551Z,12.82
2023-01-27T15:42:29.100Z,12.77
2023-01-27T15:45:43.834Z,12.75
2023-01-27T15:48:32.985Z,12.76
2023-01-27T15:51:27.548Z,13.22
2023-01-27T15:54:17.613Z,13.31
2023-01-27T15:57:11.888Z,13.21
2023-01-27T15:59:59.422Z,13.05
2023-01-27T16:02:52.539Z,13.02
2023-01-27T16:05:45.486Z,12.86
2023-01-27T16:08:40.576Z,12.81
2023-01-27T16:11:37.974Z,12.52
2023-01-27T16:14:32.577Z,12.31
2023-01-27T16:17:24.066Z,12.22
2023-01-27T16:20:32.463Z,12.15
2023-01-27T16:23:38.833Z,12.08
2023-01-27T16:26:48.571Z,12.03
2023-01-27T16:29:52.352Z,12.08
2023-01-27T16:32:49.507Z,11.96
2023-01-27T16:35:38.506Z,12.25
2023-01-27T16:38:35.784Z,12.34
2023-01-27T16:41:43.492Z,12.22
2023-01-27T16:44:58.891Z,12.09
2023-01-27T16:47:51.538Z,12.00
2023-01-27T16:50:49.772Z,11.82
2023-01-27T16:53:33.904Z,11.63
2023-01-27T16:56:35.563Z,11.51
2023-01-27T16:59:38.516Z,11.46
2023-01-27T17:02:33.227Z,11.36
2023-01-27T17:05:23.484Z,11.39
2023-01-27T17:08:36.852Z,11.39
2023-01-27T17:11:27.588Z,11.24
2023-01-27T17:14:30.328Z,11.30
2023-01-27T17:17:23.449Z,11.33
2023-01-27T17:20:22.551Z,11.43
2023-01-27T17:23:12.890Z,11.33
2023-01-27T17:25:55.552Z,11.46
2023-01-27T17:28:44.711Z,11.51
2023-01-27T17:31:33.578Z,11.45
2023-01-27T17:34:24.934Z,11.40
2023-01-27T17:37:24.464Z,11.38
2023-01-27T17:40:09.892Z,11.43
2023-01-27T17:42:58.591Z,11.46
2023-01-27T17:45:40.805Z,11.52
2023-01-27T17:48:29.482Z,11.63
2023-01-27T17:51:16.069Z,12.03
2023-01-27T17:54:06.485Z,12.10
2023-01-27T17:59:37.875Z,11.93
2023-01-27T18:02:33.037Z,11.79
2023-01-27T18:05:41.566Z,11.71
2023-01-27T18:08:24.657Z,11.44
2023-01-27T18:11:28.606Z,11.27
2023-01-27T18:14:24.948Z,11.18
2023-01-27T18:17:35.463Z,11.13
2023-01-27T18:20:42.819Z,11.06
2023-01-27T18:23:40.525Z,11.02
2023-01-27T18:26:51.129Z,11.07
2023-01-27T18:29:45.493Z,11.10
2023-01-27T18:32:37.369Z,11.38
2023-01-27T18:35:41.502Z,11.48
2023-01-27T18:38:43.533Z,11.40
2023-01-27T18:41:39.140Z,11.26
2023-01-27T18:44:22.518Z,11.14
2023-01-27T18:47:42.467Z,10.87
2023-01-27T18:50:34.730Z,10.71
2023-01-27T18:53:26.438Z,10.70
2023-01-27T18:56:15.858Z,10.62
2023-01-27T18:58:58.417Z,10.47
2023-01-27T19:01:47.789Z,10.45
2023-01-27T19:04:31.963Z,10.48
2023-01-27T19:07:24.858Z,10.48
2023-01-27T19:10:07.422Z,10.58
2023-01-27T19:12:56.814Z,10.56
2023-01-27T19:15:45.407Z,10.53
2023-01-27T19:18:52.563Z,10.53
2023-01-27T19:21:35.383Z,10.53
2023-01-27T19:24:25.513Z,10.58
2023-01-27T19:27:11.039Z,10.81
2023-01-27T19:29:59.477Z,10.68
2023-01-27T19:32:41.672Z,10.79
2023-01-27T19:35:30.419Z,10.91
2023-01-27T19:38:19.726Z,10.66
2023-01-27T19:41:02.395Z,10.48
2023-01-27T19:43:54.527Z,10.28
2023-01-27T19:46:37.863Z,10.22
2023-01-27T19:49:27.471Z,10.24
2023-01-27T19:52:11.060Z,10.01
2023-01-27T19:54:59.482Z,9.97
2023-01-27T19:57:41.932Z,10.04
2023-01-27T20:00:37.489Z,10.35
2023-01-27T20:03:19.994Z,10.40
2023-01-27T20:06:08.726Z,10.08
2023-01-27T20:08:53.101Z,10.06
2023-01-27T20:11:52.494Z,10.08
2023-01-27T20:14:34.794Z,10.17
2023-01-27T20:17:23.502Z,10.29
2023-01-27T20:20:05.721Z,10.31
2023-01-27T20:22:54.451Z,10.01
2023-01-27T20:25:36.748Z,9.90
2023-01-27T20:28:25.568Z,9.75
2023-01-27T20:31:25.433Z,9.75
2023-01-27T20:34:14.383Z,9.66
2023-01-27T20:37:04.486Z,9.67
2023-01-27T20:39:46.820Z,9.77
2023-01-27T20:42:36.387Z,9.68
2023-01-27T20:45:26.491Z,9.59
2023-01-27T20:48:08.745Z,9.62
2023-01-27T20:51:07.548Z,9.60
2023-01-27T20:53:51.819Z,9.60
2023-01-27T20:56:40.483Z,9.50
2023-01-27T20:59:22.736Z,9.42
2023-01-27T21:02:11.497Z,9.38
2023-01-27T21:04:53.681Z,9.41
2023-01-27T21:07:42.415Z,9.47
2023-01-27T21:10:26.762Z,9.52
2023-01-27T21:13:15.427Z,9.57
2023-01-27T21:16:05.422Z,9.63
2023-01-27T21:18:53.712Z,9.77
2023-01-27T21:21:38.390Z,9.87
2023-01-27T21:24:27.080Z,9.95
2023-01-27T21:27:09.506Z,9.94
2023-01-27T21:30:04.301Z,9.97
2023-01-27T21:32:53.378Z,10.08
2023-01-27T21:35:35.743Z,10.08
2023-01-27T21:38:26.453Z,10.04
2023-01-27T21:41:20.468Z,9.97
2023-01-27T21:44:21.206Z,10.02
2023-01-27T21:47:10.514Z,9.99
2023-01-27T21:50:01.914Z,10.04
2023-01-27T21:52:54.430Z,10.22
2023-01-27T21:55:36.694Z,10.42
2023-01-27T21:58:25.413Z,10.38
2023-01-27T22:01:18.543Z,10.29
2023-01-27T22:04:00.806Z,10.15
2023-01-27T22:06:49.539Z,10.19
2023-01-27T22:09:31.677Z,10.19
2023-01-27T22:12:23.387Z,10.10
2023-01-27T22:15:14.796Z,10.04
2023-01-27T22:18:03.778Z,10.00
2023-01-27T22:20:45.398Z,9.94
2023-01-27T22:23:27.522Z,10.00
2023-01-27T22:26:18.366Z,10.05
2023-01-27T22:29:01.609Z,9.96
2023-01-27T22:31:50.392Z,9.93
2023-01-27T22:34:32.769Z,9.87
2023-01-27T22:37:21.422Z,9.72
2023-01-27T22:40:03.688Z,9.63
2023-01-27T22:42:52.452Z,9.53
2023-01-27T22:45:41.503Z,9.50
2023-01-27T22:48:23.706Z,9.99
2023-01-27T22:51:13.471Z,10.02
2023-01-27T22:53:55.720Z,9.87
2023-01-27T22:56:45.449Z,9.79
2023-01-27T22:59:27.735Z,9.74
2023-01-27T23:02:16.408Z,9.61
2023-01-27T23:04:58.696Z,9.42
2023-01-27T23:07:47.419Z,9.39
2023-01-27T23:10:29.625Z,9.37
2023-01-27T23:13:19.376Z,9.29
2023-01-27T23:16:08.400Z,9.11
2023-01-27T23:18:51.947Z,9.01
2023-01-27T23:21:41.419Z,8.91
2023-01-27T23:24:30.426Z,9.15
2023-01-27T23:27:12.649Z,9.25
2023-01-27T23:30:01.390Z,9.04
2023-01-27T23:32:49.701Z,8.87
2023-01-27T23:35:32.385Z,8.77
2023-01-27T23:38:32.016Z,8.81
2023-01-27T23:41:29.364Z,8.78
2023-01-27T23:44:13.872Z,8.99
2023-01-27T23:47:02.398Z,8.91
2023-01-27T23:49:51.470Z,8.86
2023-01-27T23:52:33.662Z,8.88
2023-01-27T23:55:22.460Z,8.85
2023-01-27T23:58:04.705Z,8.82
